createdAt,value
2018-04-12T00:00:20.223Z,100650.87
2018-04-12T00:02:47.716Z,100641.91
2018-04-12T00:05:15.289Z,100640.73
2018-04-12T00:07:43.459Z,100633.05
2018-04-12T00:10:12.017Z,100636.99
2018-04-12T00:12:40.228Z,100631.11
2018-04-12T00:15:08.541Z,100628.64
2018-04-12T00:17:37.747Z,100635.26
2018-04-12T00:20:05.282Z,100640.11
2018-04-12T00:22:32.778Z,100637.13
2018-04-12T00:25:00.356Z,100644.63
2018-04-12T00:27:31.990Z,100635.15
2018-04-12T00:30:01.031Z,100642.11
2018-04-12T00:32:29.198Z,100644.73
2018-04-12T00:34:57.793Z,100640.47
2018-04-12T00:37:25.337Z,100640.47
2018-04-12T00:39:52.846Z,100640.89
2018-04-12T00:42:21.250Z,100636.48
2018-04-12T00:44:49.589Z,100636.39
2018-04-12T00:47:18.783Z,100631.94
2018-04-12T00:49:48.876Z,100627.58
2018-04-12T00:52:16.363Z,100629.64
2018-04-12T00:54:43.966Z,100626.05
2018-04-12T00:57:11.459Z,100628.45
2018-04-12T00:59:38.955Z,100623.98
2018-04-12T01:02:12.364Z,100620.39
2018-04-12T01:04:40.505Z,100623.73
2018-04-12T01:07:11.887Z,100621.80
2018-04-12T01:09:39.500Z,100615.59
2018-04-12T01:12:07.013Z,100612.86
2018-04-12T01:14:34.514Z,100612.66
2018-04-12T01:17:02.024Z,100606.87
2018-04-12T01:19:29.524Z,100602.39
2018-04-12T01:21:57.088Z,100600.96
2018-04-12T01:24:24.622Z,100594.83
2018-04-12T01:26:52.298Z,100588.31
2018-04-12T01:29:19.810Z,100586.53
2018-04-12T01:31:47.290Z,100584.67
2018-04-12T01:34:14.798Z,100591.43
2018-04-12T01:36:42.731Z,100586.97
2018-04-12T01:39:11.815Z,100576.10
2018-04-12T01:41:39.567Z,100576.44
2018-04-12T01:44:07.739Z,100570.38
2018-04-12T01:46:35.269Z,100568.22
2018-04-12T01:49:02.772Z,100565.73
2018-04-12T01:51:30.278Z,100576.21
2018-04-12T01:53:57.783Z,100568.53
2018-04-12T01:56:25.300Z,100574.23
2018-04-12T01:58:52.903Z,100568.29
2018-04-12T02:01:20.436Z,100566.34
2018-04-12T02:03:47.924Z,100562.18
2018-04-12T02:06:15.442Z,100565.84
2018-04-12T02:08:42.951Z,100564.28
2018-04-12T02:11:10.470Z,100567.41
2018-04-12T02:13:38.024Z,100567.94
2018-04-12T02:16:06.216Z,100565.87
2018-04-12T02:18:33.951Z,100570.70
2018-04-12T02:21:02.168Z,100564.31
2018-04-12T02:23:29.676Z,100564.78
2018-04-12T02:25:57.158Z,100563.66
2018-04-12T02:28:24.718Z,100560.73
2018-04-12T02:30:52.272Z,100558.61
2018-04-12T02:33:20.042Z,100569.56
2018-04-12T02:35:48.202Z,100560.18
2018-04-12T02:38:15.706Z,100561.16
2018-04-12T02:40:43.233Z,100558.27
2018-04-12T02:43:10.714Z,100564.89
2018-04-12T02:45:38.216Z,100560.31
2018-04-12T02:48:05.747Z,100561.71
2018-04-12T02:50:35.209Z,100557.95
2018-04-12T02:53:03.774Z,100555.92
2018-04-12T02:55:31.254Z,100556.02
2018-04-12T02:57:58.782Z,100553.98
2018-04-12T03:00:26.301Z,100552.78
2018-04-12T03:02:53.799Z,100548.55
2018-04-12T03:05:21.317Z,100544.80
2018-04-12T03:07:49.754Z,100544.06
2018-04-12T03:10:17.328Z,100542.47
2018-04-12T03:12:44.881Z,100545.19
2018-04-12T03:15:12.392Z,100544.42
2018-04-12T03:17:39.883Z,100536.81
2018-04-12T03:20:07.382Z,100532.13
2018-04-12T03:22:35.290Z,100527.47
2018-04-12T03:25:03.712Z,100530.18
2018-04-12T03:27:31.739Z,100521.33
2018-04-12T03:29:59.248Z,100514.80
2018-04-12T03:32:27.251Z,100517.48
2018-04-12T03:34:54.730Z,100512.43
2018-04-12T03:40:15.263Z,100504.75
2018-04-12T03:42:43.310Z,100504.83
2018-04-12T03:45:12.087Z,100506.58
2018-04-12T03:47:39.606Z,100506.67
2018-04-12T03:50:07.102Z,100508.86
2018-04-12T03:52:34.606Z,100512.83
2018-04-12T03:55:02.109Z,100514.72
2018-04-12T03:57:29.878Z,100508.84
2018-04-12T03:59:57.489Z,100511.11
2018-04-12T04:02:25.035Z,100510.75
2018-04-12T04:04:52.514Z,100500.88
2018-04-12T04:07:20.042Z,100505.64
2018-04-12T04:09:47.552Z,100504.37
2018-04-12T04:12:15.026Z,100497.69
2018-04-12T04:14:48.405Z,100498.84
2018-04-12T04:17:28.811Z,100490.94
2018-04-12T04:20:07.969Z,100489.81
2018-04-12T04:22:35.450Z,100495.52
2018-04-12T04:25:02.955Z,100489.91
2018-04-12T04:27:30.462Z,100491.28
2018-04-12T04:29:57.984Z,100488.75
2018-04-12T04:32:25.500Z,100495.30
2018-04-12T04:34:53.106Z,100488.92
2018-04-12T04:37:23.732Z,100488.95
2018-04-12T04:39:51.266Z,100484.21
2018-04-12T04:42:19.618Z,100485.60
2018-04-12T04:44:47.118Z,100485.72
2018-04-12T04:47:14.613Z,100481.89
2018-04-12T04:49:42.362Z,100485.35
2018-04-12T04:52:11.307Z,100481.48
2018-04-12T04:54:39.667Z,100477.27
2018-04-12T04:57:07.170Z,100479.12
2018-04-12T04:59:34.678Z,100480.05
2018-04-12T05:02:02.203Z,100486.48
2018-04-12T05:04:29.706Z,100486.11
2018-04-12T05:06:57.226Z,100483.98
2018-04-12T05:09:24.739Z,100486.70
2018-04-12T05:11:53.175Z,100492.05
2018-04-12T05:14:20.689Z,100495.65
2018-04-12T05:16:48.178Z,100502.22
2018-04-12T05:19:15.714Z,100500.99
2018-04-12T05:21:43.215Z,100501.11
2018-04-12T05:24:11.641Z,100504.55
2018-04-12T05:26:39.762Z,100503.27
2018-04-12T05:29:08.170Z,100510.20
2018-04-12T05:31:35.667Z,100505.02
2018-04-12T05:34:03.158Z,100500.27
2018-04-12T05:36:30.665Z,100508.97
2018-04-12T05:38:58.180Z,100509.39
2018-04-12T05:41:25.720Z,100514.57
2018-04-12T05:43:53.295Z,100518.36
2018-04-12T05:46:20.817Z,100513.55
2018-04-12T05:48:48.337Z,100511.80
2018-04-12T05:51:15.845Z,100506.97
2018-04-12T05:53:43.333Z,100508.67
2018-04-12T05:56:10.826Z,100509.02
2018-04-12T05:58:41.458Z,100510.70
2018-04-12T06:01:11.187Z,100515.83
2018-04-12T06:03:39.865Z,100513.64
2018-04-12T06:06:07.827Z,100513.64
2018-04-12T06:08:35.749Z,100514.84
2018-04-12T06:11:03.242Z,100516.91
2018-04-12T06:13:30.782Z,100520.69
2018-04-12T06:16:00.320Z,100519.70
2018-04-12T06:18:28.858Z,100523.45
2018-04-12T06:20:56.809Z,100525.52
2018-04-12T06:23:24.318Z,100525.86
2018-04-12T06:25:52.220Z,100530.90
2018-04-12T06:28:19.753Z,100536.34
2018-04-12T06:30:47.266Z,100535.28
2018-04-12T06:33:15.210Z,100538.58
2018-04-12T06:35:43.618Z,100527.15
2018-04-12T06:38:12.426Z,100537.30
2018-04-12T06:40:39.926Z,100535.77
2018-04-12T06:43:07.446Z,100535.10
2018-04-12T06:45:34.924Z,100536.53
2018-04-12T06:48:03.289Z,100533.67
2018-04-12T06:50:31.794Z,100533.38
2018-04-12T06:53:00.014Z,100529.54
2018-04-12T06:55:28.407Z,100529.21
2018-04-12T06:57:56.898Z,100529.31
2018-04-12T07:00:24.393Z,100524.64
2018-04-12T07:02:51.884Z,100523.41
2018-04-12T07:05:19.396Z,100528.13
2018-04-12T07:07:47.775Z,100521.71
2018-04-12T07:10:15.342Z,100516.09
2018-04-12T07:12:43.757Z,100520.38
2018-04-12T07:15:11.261Z,100520.83
2018-04-12T08:01:20.910Z,100520.38
2018-04-12T08:03:51.302Z,100523.25
2018-04-12T08:06:36.978Z,100520.11
2018-04-12T08:09:04.728Z,100515.72
2018-04-12T08:11:32.425Z,100513.84
2018-04-12T08:14:00.187Z,100513.25
2018-04-12T08:25:43.879Z,100502.72
2018-04-12T08:28:11.543Z,100503.91
2018-04-12T08:30:39.224Z,100499.09
2018-04-12T08:33:07.728Z,100495.71
2018-04-12T08:44:43.698Z,100495.95
2018-04-12T08:47:11.283Z,100503.39
2018-04-12T08:49:38.956Z,100499.05
2018-04-12T09:01:14.782Z,100511.14
2018-04-12T09:03:42.412Z,100510.42
2018-04-12T09:06:09.985Z,100509.92
2018-04-12T09:17:46.521Z,100507.72
2018-04-12T09:20:14.269Z,100501.95
2018-04-12T09:22:41.836Z,100501.77
2018-04-12T09:31:19.521Z,100493.25
2018-04-12T09:33:56.819Z,100489.06
2018-04-12T09:36:24.411Z,100490.61
2018-04-12T09:38:52.065Z,100492.15
2018-04-12T09:41:20.496Z,100484.66
2018-04-12T09:46:39.678Z,100487.81
2018-04-12T09:49:11.978Z,100486.39
2018-04-12T09:51:39.560Z,100483.24
2018-04-12T09:54:07.215Z,100484.05
2018-04-12T09:56:34.774Z,100475.17
2018-04-12T09:59:03.292Z,100480.97
2018-04-12T10:10:07.225Z,100484.59
2018-04-12T10:12:37.409Z,100474.86
2018-04-12T10:15:05.012Z,100479.93
2018-04-12T10:26:41.168Z,100467.80
2018-04-12T10:29:08.892Z,100463.69
2018-04-12T10:31:36.923Z,100465.62
2018-04-12T10:43:09.280Z,100459.75
2018-04-12T10:45:36.965Z,100459.51
2018-04-12T10:48:04.644Z,100453.13
2018-04-12T10:59:44.857Z,100447.11
2018-04-12T11:02:12.672Z,100446.01
2018-04-12T11:04:40.345Z,100444.59
2018-04-12T11:07:08.337Z,100441.58
2018-04-12T11:18:44.980Z,100437.49
2018-04-12T11:21:12.642Z,100434.89
2018-04-12T11:23:40.917Z,100439.34
2018-04-12T11:35:17.434Z,100424.29
2018-04-12T11:37:44.975Z,100426.61
2018-04-12T11:40:12.653Z,100427.89
2018-04-12T11:51:48.651Z,100414.47
2018-04-12T11:54:16.214Z,100412.92
2018-04-12T11:56:43.817Z,100415.73
2018-04-12T12:08:20.264Z,100410.61
2018-04-12T12:10:48.863Z,100410.59
2018-04-12T12:13:30.085Z,100410.79
2018-04-12T12:25:07.568Z,100399.20
2018-04-12T12:42:57.900Z,100398.75
2018-04-12T12:45:27.403Z,100396.15
2018-04-12T12:47:57.157Z,100387.27
2018-04-12T12:59:34.132Z,100381.79
2018-04-12T13:02:01.747Z,100376.91
2018-04-12T13:04:29.323Z,100370.64
2018-04-12T13:16:13.036Z,100352.60
2018-04-12T13:18:40.612Z,100352.86
2018-04-12T13:21:08.200Z,100353.19
2018-04-12T13:23:35.778Z,100354.24
2018-04-12T13:26:07.552Z,100350.30
2018-04-12T13:38:31.166Z,100338.92
2018-04-12T13:53:10.564Z,100333.86
2018-04-12T13:55:38.177Z,100331.77
2018-04-12T14:10:24.595Z,100326.02
2018-04-12T14:13:05.281Z,100329.27
2018-04-12T14:22:00.260Z,100328.99
2018-04-12T14:24:29.059Z,100323.86
2018-04-12T14:26:56.593Z,100325.58
2018-04-12T14:29:25.337Z,100324.44
2018-04-12T14:31:52.914Z,100322.70
2018-04-12T14:43:29.238Z,100318.77
2018-04-12T14:45:57.863Z,100317.52
2018-04-12T14:48:25.579Z,100314.49
2018-04-12T15:00:02.117Z,100296.01
2018-04-12T15:02:29.778Z,100296.58
2018-04-12T15:04:57.409Z,100297.53
2018-04-12T15:13:32.245Z,100286.19
2018-04-12T15:16:00.931Z,100281.56
2018-04-12T15:18:28.514Z,100284.05
2018-04-12T15:20:56.200Z,100280.86
2018-04-12T15:23:23.774Z,100281.89
2018-04-12T15:35:02.982Z,100282.38
2018-04-12T15:37:32.244Z,100285.14
2018-04-12T15:40:03.726Z,100279.78
2018-04-12T15:51:40.101Z,100291.67
2018-04-12T15:54:07.945Z,100294.08
2018-04-12T15:56:35.950Z,100295.17
2018-04-12T16:08:15.212Z,100287.98
2018-04-12T16:10:43.081Z,100289.17
2018-04-12T16:13:10.780Z,100288.22
2018-04-12T16:24:46.588Z,100290.25
2018-04-12T16:27:14.240Z,100291.45
2018-04-12T16:29:42.026Z,100295.93
2018-04-12T16:41:28.800Z,100302.85
2018-04-12T16:44:05.642Z,100305.69
2018-04-12T16:46:33.716Z,100296.56
2018-04-12T17:01:20.540Z,100294.30
2018-04-12T17:22:13.483Z,100297.58
2018-04-12T17:33:49.861Z,100299.09
2018-04-12T17:36:17.409Z,100299.05
2018-04-12T17:38:44.993Z,100295.13
2018-04-12T17:41:12.652Z,100304.13
2018-04-12T17:43:43.752Z,100301.70
2018-04-12T17:46:13.259Z,100294.66
2018-04-12T17:48:41.161Z,100295.17
2018-04-12T17:51:08.756Z,100290.63
2018-04-12T17:53:36.322Z,100299.88
2018-04-12T17:56:03.949Z,100303.72
2018-04-12T17:58:32.797Z,100302.05
2018-04-12T18:01:04.813Z,100305.69
2018-04-12T18:03:36.404Z,100310.06
2018-04-12T18:06:05.045Z,100310.17
2018-04-12T18:08:32.575Z,100308.97
2018-04-12T18:11:00.220Z,100307.63
2018-04-12T18:13:27.855Z,100315.02
2018-04-12T18:28:17.452Z,100324.00
2018-04-12T18:30:54.155Z,100332.02
2018-04-12T19:21:55.397Z,100384.22
2018-04-12T19:33:31.746Z,100410.81
2018-04-12T19:35:59.488Z,100412.30
2018-04-12T19:38:27.619Z,100415.16
2018-04-12T19:50:04.195Z,100435.70
2018-04-12T19:52:31.769Z,100439.12
2018-04-12T19:54:59.394Z,100441.63
2018-04-12T20:06:35.513Z,100450.57
2018-04-12T20:09:03.113Z,100454.91
2018-04-12T20:11:30.743Z,100457.55
2018-04-12T20:13:58.307Z,100462.69
2018-04-12T20:25:34.763Z,100471.60
2018-04-12T20:28:02.351Z,100478.31
2018-04-12T20:30:29.901Z,100477.72
2018-04-12T20:42:06.109Z,100473.12
2018-04-12T20:44:33.785Z,100470.72
2018-04-12T20:47:01.331Z,100480.53
2018-04-12T20:58:37.920Z,100475.31
2018-04-12T21:01:05.684Z,100477.17
2018-04-12T21:03:33.312Z,100479.50
2018-04-12T21:14:46.789Z,100484.58
2018-04-12T21:17:14.311Z,100478.97
2018-04-12T21:19:41.943Z,100475.13
2018-04-12T21:22:09.584Z,100478.69
2018-04-12T21:32:19.235Z,100484.95
2018-04-12T21:34:46.782Z,100483.25
2018-04-12T21:37:14.440Z,100484.23
2018-04-12T21:39:42.907Z,100479.09
2018-04-12T21:49:52.088Z,100469.52
2018-04-12T21:52:19.659Z,100472.72
2018-04-12T21:54:47.215Z,100466.47
2018-04-12T21:57:15.434Z,100473.58
2018-04-12T22:02:29.715Z,100477.28
2018-04-12T22:07:59.662Z,100470.33
2018-04-12T22:10:27.245Z,100472.66
2018-04-12T22:12:54.809Z,100474.87
2018-04-12T22:24:31.207Z,100462.86
2018-04-12T22:26:58.778Z,100476.43
2018-04-12T22:29:26.288Z,100469.55
2018-04-12T22:31:53.907Z,100480.27
2018-04-12T22:34:21.514Z,100477.85
2018-04-12T22:36:49.107Z,100470.77
2018-04-12T22:39:16.732Z,100475.95
2018-04-12T22:41:44.348Z,100475.33
2018-04-12T22:44:11.890Z,100472.91
2018-04-12T22:46:39.415Z,100475.27
2018-04-12T22:49:06.975Z,100470.70
2018-04-12T22:51:34.573Z,100470.11
2018-04-12T22:54:02.248Z,100465.17
2018-04-12T22:56:29.836Z,100466.83
2018-04-12T22:58:57.359Z,100468.09
2018-04-12T23:01:24.919Z,100463.27
2018-04-12T23:03:52.559Z,100468.88
2018-04-12T23:06:20.279Z,100473.67
2018-04-12T23:08:47.969Z,100468.80
2018-04-12T23:11:15.875Z,100465.25
2018-04-12T23:13:43.909Z,100469.45
2018-04-12T23:16:11.440Z,100466.30
2018-04-12T23:18:39.031Z,100471.03
2018-04-12T23:21:06.585Z,100467.26
2018-04-12T23:23:34.177Z,100470.01
2018-04-12T23:26:01.766Z,100469.30
2018-04-12T23:28:29.315Z,100474.66
2018-04-12T23:30:57.580Z,100477.27
2018-04-12T23:33:25.131Z,100471.66
2018-04-12T23:35:52.659Z,100475.67
2018-04-12T23:38:20.216Z,100473.63
2018-04-12T23:40:47.877Z,100484.59
2018-04-12T23:43:15.887Z,100484.66
2018-04-12T23:45:44.517Z,100489.45
2018-04-12T23:48:12.868Z,100492.84
2018-04-12T23:50:40.410Z,100486.88
2018-04-12T23:53:07.923Z,100486.48
2018-04-12T23:55:35.448Z,100493.86
2018-04-12T23:58:03.044Z,100495.13
